createdAt,value
2023-02-06T00:01:52.254Z,26.00
2023-02-06T00:04:55.238Z,23.50
2023-02-06T00:07:58.056Z,24.45
2023-02-06T00:11:08.891Z,17.23
2023-02-06T00:14:11.644Z,23.12
2023-02-06T00:17:14.676Z,27.50
2023-02-06T00:20:17.522Z,23.90
2023-02-06T00:23:20.625Z,28.10
2023-02-06T00:26:24.636Z,21.02
2023-02-06T00:29:27.789Z,23.52
2023-02-06T00:32:30.679Z,28.15
2023-02-06T00:35:33.902Z,27.15
2023-02-06T00:38:38.283Z,25.45
2023-02-06T00:41:41.476Z,22.07
2023-02-06T00:44:44.166Z,30.95
2023-02-06T00:47:47.157Z,24.48
2023-02-06T00:50:50.705Z,22.77
2023-02-06T00:53:53.735Z,25.35
2023-02-06T00:56:56.475Z,25.37
2023-02-06T00:59:59.455Z,24.63
2023-02-06T01:03:02.911Z,28.10
2023-02-06T01:06:06.124Z,26.48
2023-02-06T01:09:08.880Z,25.62
2023-02-06T01:12:11.863Z,24.27
2023-02-06T01:15:14.841Z,25.17
2023-02-06T01:18:18.030Z,20.62
2023-02-06T01:21:23.893Z,22.63
2023-02-06T01:24:26.897Z,21.92
2023-02-06T01:27:29.585Z,27.02
2023-02-06T01:30:33.789Z,27.33
2023-02-06T01:33:37.063Z,21.77
2023-02-06T01:36:40.155Z,25.05
2023-02-06T01:39:42.900Z,23.23
2023-02-06T01:42:45.873Z,18.33
2023-02-06T01:45:50.473Z,20.98
2023-02-06T01:48:54.864Z,22.55
2023-02-06T01:52:20.160Z,21.60
2023-02-06T01:55:24.027Z,25.58
2023-02-06T01:58:31.500Z,29.80
2023-02-06T02:01:34.892Z,24.12
2023-02-06T02:04:37.988Z,25.40
2023-02-06T02:08:09.335Z,20.98
2023-02-06T02:11:17.890Z,23.92
2023-02-06T02:14:20.688Z,24.60
2023-02-06T02:17:57.898Z,18.67
2023-02-06T02:21:34.972Z,23.20
2023-02-06T02:24:59.391Z,19.73
2023-02-06T02:28:20.453Z,33.28
2023-02-06T02:31:45.801Z,23.23
2023-02-06T02:35:28.906Z,14.25
2023-02-06T02:39:03.883Z,9.80
2023-02-06T02:42:20.048Z,20.27
2023-02-06T02:45:39.813Z,23.17
2023-02-06T02:48:46.062Z,24.63
2023-02-06T02:51:50.671Z,23.52
2023-02-06T02:54:53.693Z,18.92
2023-02-06T02:58:07.759Z,25.13
2023-02-06T03:01:16.416Z,23.75
2023-02-06T03:04:35.338Z,19.48
2023-02-06T03:07:53.967Z,24.63
2023-02-06T03:11:05.881Z,14.23
2023-02-06T03:14:34.969Z,21.00
2023-02-06T03:18:09.313Z,13.82
2023-02-06T03:21:16.845Z,8.90
2023-02-06T03:24:32.056Z,17.87
2023-02-06T03:27:37.162Z,17.70
2023-02-06T03:30:43.995Z,27.83
2023-02-06T03:34:01.781Z,19.00
2023-02-06T03:37:04.852Z,18.85
2023-02-06T03:40:08.975Z,23.20
2023-02-06T03:43:18.854Z,16.15
2023-02-06T03:46:23.779Z,14.40
2023-02-06T03:49:31.354Z,15.82
2023-02-06T03:52:40.720Z,17.80
2023-02-06T03:55:46.268Z,17.02
2023-02-06T03:58:49.087Z,16.65
2023-02-06T04:01:55.452Z,23.70
2023-02-06T04:04:58.539Z,27.90
2023-02-06T04:08:01.599Z,21.92
2023-02-06T04:11:04.902Z,19.83
2023-02-06T04:14:07.662Z,31.83
2023-02-06T04:17:11.746Z,36.25
2023-02-06T04:20:14.507Z,38.20
2023-02-06T04:23:17.809Z,28.17
2023-02-06T04:26:20.538Z,40.03
2023-02-06T04:29:23.537Z,26.27
2023-02-06T04:32:26.278Z,27.37
2023-02-06T04:35:29.390Z,25.35
2023-02-06T04:38:32.041Z,30.00
2023-02-06T04:41:35.388Z,26.33
2023-02-06T04:44:38.724Z,27.42
2023-02-06T04:47:41.876Z,26.33
2023-02-06T04:50:44.644Z,21.83
2023-02-06T04:53:48.093Z,23.47
2023-02-06T04:56:51.229Z,25.25
2023-02-06T04:59:54.250Z,30.55
2023-02-06T05:02:57.090Z,27.20
2023-02-06T05:06:01.573Z,20.67
2023-02-06T05:09:05.208Z,28.08
2023-02-06T05:12:08.539Z,22.83
2023-02-06T05:15:11.260Z,18.85
2023-02-06T05:18:15.476Z,26.65
2023-02-06T05:21:18.694Z,22.02
2023-02-06T05:24:21.667Z,32.40
2023-02-06T05:27:25.740Z,24.12
2023-02-06T05:30:29.105Z,21.75
2023-02-06T05:33:32.134Z,27.83
2023-02-06T05:36:35.226Z,25.08
2023-02-06T05:39:37.932Z,23.20
2023-02-06T05:42:41.155Z,23.58
2023-02-06T05:45:43.839Z,21.52
2023-02-06T05:48:47.012Z,13.52
2023-02-06T05:51:49.672Z,25.98
2023-02-06T05:54:52.926Z,20.13
2023-02-06T05:57:55.649Z,23.50
2023-02-06T06:00:58.956Z,21.83
2023-02-06T06:04:02.222Z,38.63
2023-02-06T06:07:05.235Z,39.47
2023-02-06T06:10:09.374Z,25.65
2023-02-06T06:13:12.200Z,29.40
2023-02-06T06:16:15.663Z,26.40
2023-02-06T06:19:18.835Z,28.48
2023-02-06T06:22:22.296Z,36.55
2023-02-06T06:25:24.967Z,36.90
2023-02-06T06:28:28.157Z,42.95
2023-02-06T06:31:30.926Z,37.38
2023-02-06T06:34:34.143Z,21.60
2023-02-06T06:37:37.129Z,25.08
2023-02-06T06:40:41.345Z,29.65
2023-02-06T06:43:44.406Z,30.67
2023-02-06T06:46:47.356Z,27.50
2023-02-06T06:49:50.180Z,38.40
2023-02-06T06:52:53.176Z,38.10
2023-02-06T06:55:56.099Z,27.57
2023-02-06T06:59:00.186Z,37.08
2023-02-06T07:02:03.229Z,29.10
2023-02-06T07:05:07.574Z,31.60
2023-02-06T07:08:10.440Z,35.70
2023-02-06T07:11:14.974Z,39.08
2023-02-06T07:14:17.797Z,29.05
2023-02-06T07:17:20.978Z,28.20
2023-02-06T07:20:23.862Z,27.33
2023-02-06T07:23:27.396Z,29.33
2023-02-06T07:26:30.482Z,24.57
2023-02-06T07:29:33.649Z,31.12
2023-02-06T07:32:37.144Z,25.73
2023-02-06T07:35:43.055Z,24.33
2023-02-06T07:38:45.792Z,33.03
2023-02-06T07:41:51.090Z,15.38
2023-02-06T07:44:55.438Z,27.35
2023-02-06T07:47:58.453Z,27.47
2023-02-06T07:51:06.291Z,31.12
2023-02-06T07:54:09.860Z,25.52
2023-02-06T07:57:12.632Z,12.68
2023-02-06T08:00:16.342Z,12.18
2023-02-06T08:03:21.056Z,17.45
2023-02-06T08:06:25.147Z,31.90
2023-02-06T08:09:28.310Z,13.03
2023-02-06T08:12:31.280Z,23.12
2023-02-06T08:15:34.673Z,18.23
2023-02-06T08:18:38.556Z,13.27
2023-02-06T08:21:41.672Z,18.33
2023-02-06T08:24:45.578Z,13.32
2023-02-06T08:27:53.430Z,14.87
2023-02-06T08:30:56.206Z,10.77
2023-02-06T08:33:59.536Z,7.10
2023-02-06T08:37:02.251Z,12.93
2023-02-06T08:40:06.142Z,23.25
2023-02-06T08:43:08.917Z,7.97
2023-02-06T08:46:11.958Z,15.20
2023-02-06T08:49:20.429Z,20.17
2023-02-06T08:52:23.560Z,10.55
2023-02-06T08:55:26.318Z,4.97
2023-02-06T08:58:29.425Z,12.57
2023-02-06T09:01:34.211Z,10.90
2023-02-06T09:04:37.897Z,18.85
2023-02-06T09:07:40.721Z,18.08
2023-02-06T09:10:43.776Z,17.80
2023-02-06T09:13:49.343Z,5.70
2023-02-06T09:16:53.257Z,13.15
2023-02-06T09:19:56.105Z,18.30
2023-02-06T09:22:59.209Z,3.90
2023-02-06T09:26:02.062Z,18.27
2023-02-06T09:29:08.035Z,11.07
2023-02-06T09:32:10.802Z,15.35
2023-02-06T09:35:13.955Z,10.52
2023-02-06T09:38:16.728Z,13.65
2023-02-06T09:41:29.552Z,6.47
2023-02-06T09:44:49.301Z,20.33
2023-02-06T09:48:14.653Z,13.80
2023-02-06T09:51:40.159Z,13.93
2023-02-06T09:55:10.532Z,10.47
2023-02-06T09:58:49.452Z,19.58
2023-02-06T10:02:19.146Z,7.53
2023-02-06T10:05:29.272Z,18.98
2023-02-06T10:08:40.992Z,16.25
2023-02-06T10:11:52.242Z,15.27
2023-02-06T10:15:01.822Z,14.43
2023-02-06T10:18:12.045Z,14.90
2023-02-06T10:21:17.739Z,17.25
2023-02-06T10:24:42.331Z,15.52
2023-02-06T10:27:48.027Z,18.03
2023-02-06T10:31:15.128Z,7.03
2023-02-06T10:34:42.135Z,21.20
2023-02-06T10:38:05.156Z,15.52
2023-02-06T10:41:21.492Z,18.08
2023-02-06T10:44:36.646Z,19.60
2023-02-06T10:47:55.389Z,18.20
2023-02-06T10:51:21.578Z,20.48
2023-02-06T10:54:31.648Z,22.85
2023-02-06T10:57:35.041Z,19.70
2023-02-06T11:00:39.443Z,15.37
2023-02-06T11:03:53.004Z,20.00
2023-02-06T11:07:00.884Z,16.05
2023-02-06T11:10:05.378Z,21.77
2023-02-06T11:13:14.891Z,18.90
2023-02-06T11:16:24.768Z,22.27
2023-02-06T11:19:31.175Z,19.23
2023-02-06T11:22:44.254Z,19.85
2023-02-06T11:26:10.832Z,35.85
2023-02-06T11:29:32.902Z,16.10
2023-02-06T11:32:41.387Z,15.97
2023-02-06T11:35:55.313Z,18.77
2023-02-06T11:39:01.019Z,21.85
2023-02-06T11:42:18.444Z,21.70
2023-02-06T11:45:30.551Z,20.50
2023-02-06T11:48:46.656Z,19.13
2023-02-06T11:51:51.726Z,20.47
2023-02-06T11:54:56.653Z,25.75
2023-02-06T11:58:04.864Z,22.15
2023-02-06T12:01:16.287Z,19.50
2023-02-06T12:04:47.343Z,19.83
2023-02-06T12:07:56.446Z,19.57
2023-02-06T12:11:05.954Z,20.98
2023-02-06T12:14:23.961Z,21.15
2023-02-06T12:17:35.259Z,16.02
2023-02-06T12:20:48.502Z,19.70
2023-02-06T12:24:05.035Z,19.93
2023-02-06T12:27:41.328Z,15.13
2023-02-06T12:30:57.874Z,17.42
2023-02-06T12:34:31.902Z,18.55
2023-02-06T12:37:44.400Z,13.00
2023-02-06T12:41:24.311Z,18.87
2023-02-06T12:44:42.245Z,19.58
2023-02-06T12:47:52.134Z,15.23
2023-02-06T12:51:10.289Z,11.38
2023-02-06T12:54:28.634Z,15.10
2023-02-06T12:57:32.753Z,10.53
2023-02-06T13:00:52.200Z,12.68
2023-02-06T13:03:58.491Z,17.33
2023-02-06T13:07:11.831Z,16.62
2023-02-06T13:10:24.967Z,21.77
2023-02-06T13:13:35.198Z,17.33
2023-02-06T13:17:16.867Z,18.10
2023-02-06T13:20:21.729Z,16.48
2023-02-06T13:23:24.796Z,17.55
2023-02-06T13:26:46.457Z,16.80
2023-02-06T13:29:52.841Z,17.40
2023-02-06T13:33:14.256Z,16.37
2023-02-06T13:36:24.518Z,17.48
2023-02-06T13:39:31.074Z,13.52
2023-02-06T13:42:54.630Z,16.17
2023-02-06T13:46:01.587Z,10.47
2023-02-06T13:49:23.631Z,13.60
2023-02-06T13:52:42.678Z,18.30
2023-02-06T13:55:57.375Z,17.55
2023-02-06T13:59:06.590Z,21.67
2023-02-06T14:02:14.766Z,14.00
2023-02-06T14:05:26.212Z,16.35
2023-02-06T14:08:57.680Z,20.37
2023-02-06T14:12:39.042Z,24.63
2023-02-06T14:16:18.029Z,19.17
2023-02-06T14:19:38.297Z,21.73
2023-02-06T14:22:55.656Z,10.35
2023-02-06T14:26:18.067Z,19.75
2023-02-06T14:29:35.554Z,22.40
2023-02-06T14:32:54.525Z,18.27
2023-02-06T14:36:06.657Z,27.42
2023-02-06T14:39:53.263Z,9.68
2023-02-06T14:42:58.703Z,21.67
2023-02-06T14:46:07.920Z,12.83
2023-02-06T14:49:19.013Z,14.77
2023-02-06T14:52:25.822Z,17.50
2023-02-06T14:55:41.142Z,22.05
2023-02-06T14:58:46.655Z,21.60
2023-02-06T15:01:52.930Z,18.02
2023-02-06T15:04:56.978Z,14.35
2023-02-06T15:08:02.559Z,12.70
2023-02-06T15:11:18.465Z,20.57
2023-02-06T15:14:33.288Z,20.58
2023-02-06T15:17:36.476Z,16.90
2023-02-06T15:20:44.682Z,21.37
2023-02-06T15:24:32.724Z,22.77
2023-02-06T15:27:37.749Z,16.58
2023-02-06T15:30:41.083Z,19.45
2023-02-06T15:33:44.337Z,22.93
2023-02-06T15:36:47.733Z,17.42
2023-02-06T15:39:50.844Z,22.55
2023-02-06T15:42:54.422Z,19.80
2023-02-06T15:46:00.734Z,22.43
2023-02-06T15:49:04.456Z,21.40
2023-02-06T15:52:07.672Z,24.65
2023-02-06T15:55:27.779Z,26.23
2023-02-06T15:58:32.502Z,21.90
2023-02-06T16:01:40.045Z,27.00
2023-02-06T16:04:43.270Z,24.83
2023-02-06T16:07:49.705Z,29.80
2023-02-06T16:10:55.951Z,28.85
2023-02-06T16:13:59.287Z,30.40
2023-02-06T16:17:14.405Z,27.65
2023-02-06T16:20:32.415Z,28.60
2023-02-06T16:24:03.460Z,26.23
2023-02-06T16:27:17.249Z,28.35
2023-02-06T16:30:28.412Z,27.60
2023-02-06T16:33:38.842Z,30.17
2023-02-06T16:36:41.987Z,28.30
2023-02-06T16:39:46.030Z,39.60
2023-02-06T16:42:49.189Z,53.60
2023-02-06T16:45:52.631Z,49.85
2023-02-06T16:48:58.446Z,50.97
2023-02-06T16:52:01.661Z,65.15
2023-02-06T16:55:05.185Z,58.50
2023-02-06T16:58:15.857Z,65.03
2023-02-06T17:01:25.157Z,71.05
2023-02-06T17:04:28.571Z,74.80
2023-02-06T17:07:35.403Z,63.17
2023-02-06T17:10:38.552Z,59.95
2023-02-06T17:13:42.013Z,65.93
2023-02-06T17:16:45.004Z,64.60
2023-02-06T17:19:50.112Z,53.70
2023-02-06T17:22:53.359Z,54.88
2023-02-06T17:25:56.904Z,55.78
2023-02-06T17:28:59.858Z,47.88
2023-02-06T17:32:04.009Z,49.25
2023-02-06T17:35:08.393Z,56.10
2023-02-06T17:38:11.627Z,65.43
2023-02-06T17:41:15.044Z,72.77
2023-02-06T17:44:19.430Z,78.65
2023-02-06T17:47:23.886Z,68.30
2023-02-06T17:50:29.078Z,71.03
2023-02-06T17:53:31.940Z,74.93
2023-02-06T17:56:36.574Z,70.43
2023-02-06T17:59:40.051Z,86.97
2023-02-06T18:02:43.876Z,113.43
2023-02-06T18:05:56.988Z,122.93
2023-02-06T18:08:59.970Z,81.68
2023-02-06T18:12:04.797Z,60.85
2023-02-06T18:15:09.313Z,70.65
2023-02-06T18:18:13.051Z,65.12
2023-02-06T18:21:19.999Z,60.97
2023-02-06T18:24:24.433Z,76.90
2023-02-06T18:27:27.433Z,76.10
2023-02-06T18:30:30.881Z,75.72
2023-02-06T18:33:36.448Z,61.58
2023-02-06T18:36:40.548Z,64.60
2023-02-06T18:39:44.098Z,62.38
2023-02-06T18:42:51.484Z,72.25
2023-02-06T18:45:55.249Z,72.80
2023-02-06T18:49:00.607Z,71.22
2023-02-06T18:52:05.163Z,76.40
2023-02-06T18:55:10.606Z,95.55
2023-02-06T18:58:14.476Z,86.15
2023-02-06T19:01:21.726Z,99.37
2023-02-06T19:04:25.362Z,83.40
2023-02-06T19:07:30.760Z,86.57
2023-02-06T19:10:34.649Z,86.45
2023-02-06T19:13:43.076Z,101.28
2023-02-06T19:16:48.556Z,101.30
2023-02-06T19:19:54.044Z,94.70
2023-02-06T19:22:58.405Z,97.30
2023-02-06T19:26:05.774Z,94.78
2023-02-06T19:29:34.803Z,100.30
2023-02-06T19:32:41.485Z,89.07
2023-02-06T19:35:44.913Z,99.80
2023-02-06T19:38:51.167Z,103.13
2023-02-06T19:41:56.227Z,103.47
2023-02-06T19:45:00.319Z,117.55
2023-02-06T19:48:07.090Z,111.80
2023-02-06T19:51:14.174Z,85.60
2023-02-06T19:54:18.269Z,121.15
2023-02-06T19:57:22.594Z,110.47
2023-02-06T20:00:27.123Z,110.83
2023-02-06T20:03:31.509Z,121.10
2023-02-06T20:06:36.371Z,122.57
2023-02-06T20:09:47.396Z,119.37
2023-02-06T20:12:54.765Z,105.03
2023-02-06T20:16:04.056Z,136.23
2023-02-06T20:19:23.576Z,112.88
2023-02-06T20:22:27.824Z,110.72
2023-02-06T20:25:31.964Z,96.68
2023-02-06T20:28:35.586Z,118.37
2023-02-06T20:31:40.047Z,97.17
2023-02-06T20:34:44.296Z,102.20
2023-02-06T20:37:48.034Z,71.28
2023-02-06T20:40:55.510Z,68.33
2023-02-06T20:44:00.717Z,73.18
2023-02-06T20:47:04.527Z,92.90
2023-02-06T20:50:08.991Z,83.22
2023-02-06T20:53:12.576Z,100.45
2023-02-06T20:56:22.207Z,97.25
2023-02-06T20:59:25.827Z,68.80
2023-02-06T21:02:29.613Z,63.73
2023-02-06T21:05:33.277Z,72.03
2023-02-06T21:08:36.434Z,75.53
2023-02-06T21:11:45.754Z,60.20
2023-02-06T21:14:48.839Z,54.80
2023-02-06T21:17:52.174Z,42.72
2023-02-06T21:20:56.967Z,53.80
2023-02-06T21:24:00.240Z,46.47
2023-02-06T21:27:03.108Z,46.95
2023-02-06T21:30:06.937Z,34.53
2023-02-06T21:33:09.725Z,41.80
2023-02-06T21:36:12.928Z,48.55
2023-02-06T21:39:22.279Z,40.30
2023-02-06T21:42:27.645Z,42.40
2023-02-06T21:45:30.413Z,41.28
2023-02-06T21:48:34.437Z,39.25
2023-02-06T21:51:37.563Z,30.67
2023-02-06T21:54:40.604Z,40.17
2023-02-06T21:57:43.438Z,44.92
2023-02-06T22:00:47.660Z,45.85
2023-02-06T22:03:51.456Z,61.00
2023-02-06T22:06:54.134Z,45.75
2023-02-06T22:09:57.165Z,54.13
2023-02-06T22:12:59.930Z,54.63
2023-02-06T22:16:02.975Z,50.05
2023-02-06T22:19:07.077Z,41.80
2023-02-06T22:22:10.124Z,46.15
2023-02-06T22:25:12.941Z,58.78
2023-02-06T22:28:16.234Z,63.30
2023-02-06T22:31:22.549Z,49.75
2023-02-06T22:34:25.793Z,53.50
2023-02-06T22:37:31.362Z,64.78
2023-02-06T22:40:34.350Z,55.25
2023-02-06T22:43:38.736Z,55.40
2023-02-06T22:46:42.640Z,60.85
2023-02-06T22:49:45.553Z,61.78
2023-02-06T22:53:07.338Z,47.35
2023-02-06T22:56:31.260Z,64.85
2023-02-06T22:59:34.448Z,49.97
2023-02-06T23:02:38.885Z,70.12
2023-02-06T23:05:41.937Z,74.47
2023-02-06T23:08:45.019Z,74.25
2023-02-06T23:11:48.546Z,55.08
2023-02-06T23:14:51.264Z,54.50
2023-02-06T23:17:54.309Z,48.97
2023-02-06T23:20:59.700Z,55.67
2023-02-06T23:24:03.762Z,65.03
2023-02-06T23:27:06.418Z,57.25
2023-02-06T23:30:10.144Z,51.28
2023-02-06T23:33:13.153Z,64.68
2023-02-06T23:36:18.065Z,63.30
2023-02-06T23:39:21.178Z,57.42
2023-02-06T23:42:24.290Z,55.30
2023-02-06T23:45:28.085Z,61.20
2023-02-06T23:48:31.378Z,60.63
2023-02-06T23:51:35.274Z,60.83
2023-02-06T23:54:38.436Z,60.53
2023-02-06T23:57:41.929Z,59.65
